Time;durP1;ratioP1;P1;durP2;ratioP2;P2;SDS_P1;SDS_P2;PMS_P1;PMS_P2;Temp;Humidity;BMP_temperature;BMP_pressure;BME280_temperature;BME280_humidity;BME280_pressure;Samples;Min_cycle;Max_cycle;Signal;HPM_P1;HPM_P2
2023/10/31 00:02:06;;;;;;;10.50;4.23;;;;;;;12.02;88.54;94843.06;5051589;28;20191;-43
2023/10/31 00:04:32;;;;;;;8.40;4.50;;;;;;;11.80;88.35;94805.78;5051145;28;20195;-46
2023/10/31 00:06:59;;;;;;;8.10;3.87;;;;;;;12.04;88.50;94844.53;5059320;28;20190;-45
2023/10/31 00:09:26;;;;;;;10.73;4.73;;;;;;;12.03;88.18;94850.59;5071239;28;20666;-43
2023/10/31 00:11:53;;;;;;;8.20;4.63;;;;;;;12.00;88.47;94850.06;5071597;28;20194;-44
2023/10/31 00:14:20;;;;;;;7.70;4.50;;;;;;;11.97;88.35;94842.69;5071854;28;20190;-45
2023/10/31 00:16:48;;;;;;;7.23;3.83;;;;;;;11.94;88.54;94837.84;5071401;28;20222;-44
2023/10/31 00:19:16;;;;;;;5.27;3.70;;;;;;;11.92;88.65;94827.75;5071233;28;20843;-44
2023/10/31 00:21:43;;;;;;;4.90;3.87;;;;;;;11.91;88.71;94831.22;5077481;28;20191;-45
2023/10/31 00:24:10;;;;;;;9.87;4.53;;;;;;;11.87;88.55;94822.22;5071247;28;20197;-44
2023/10/31 00:26:37;;;;;;;7.47;4.23;;;;;;;11.86;88.66;94827.50;5071026;28;20194;-44
2023/10/31 00:29:04;;;;;;;6.57;4.17;;;;;;;11.84;88.79;94832.78;5072164;28;20186;-44
2023/10/31 00:31:30;;;;;;;9.23;4.20;;;;;;;11.80;89.01;94824.53;5073168;28;20193;-46
2023/10/31 00:33:57;;;;;;;5.30;4.33;;;;;;;11.74;88.83;94822.53;5070961;28;20198;-44
2023/10/31 00:36:25;;;;;;;6.77;4.33;;;;;;;11.75;89.04;94811.34;5072854;28;20581;-45
2023/10/31 00:38:52;;;;;;;6.03;4.10;;;;;;;11.73;89.10;94827.78;5071467;28;20190;-45
2023/10/31 00:41:19;;;;;;;4.93;3.63;;;;;;;11.61;89.37;94810.97;5071473;28;20183;-45
2023/10/31 00:43:45;;;;;;;10.87;4.20;;;;;;;11.70;89.26;94816.09;5072042;28;20215;-44
2023/10/31 00:46:12;;;;;;;5.93;4.03;;;;;;;11.66;89.61;94819.06;5072007;28;20195;-45
2023/10/31 00:48:39;;;;;;;7.07;3.97;;;;;;;11.63;89.69;94819.34;5070528;28;20178;-45
2023/10/31 00:51:06;;;;;;;5.23;3.93;;;;;;;11.63;89.69;94819.34;5070113;28;20226;-47
2023/10/31 00:53:34;;;;;;;6.83;4.50;;;;;;;11.58;90.12;94812.09;5070664;28;20183;-46
2023/10/31 00:56:01;;;;;;;6.07;3.80;;;;;;;11.59;90.09;94818.00;5070459;28;20190;-42
2023/10/31 00:58:27;;;;;;;5.87;4.10;;;;;;;11.52;90.20;94799.81;5070979;28;20190;-44
2023/10/31 01:00:54;;;;;;;6.60;4.40;;;;;;;11.51;90.47;94808.47;5072683;28;20700;-45
2023/10/31 01:03:21;;;;;;;8.53;4.50;;;;;;;11.43;90.42;94796.34;5078263;28;20202;-44
2023/10/31 01:05:48;;;;;;;11.57;3.90;;;;;;;11.41;90.61;94798.25;5075035;28;20187;-44
2023/10/31 01:08:14;;;;;;;10.20;4.37;;;;;;;11.39;90.80;94802.69;5070146;28;20179;-44
2023/10/31 01:10:43;;;;;;;4.93;4.20;;;;;;;11.36;91.11;94797.88;5070028;28;20178;-45
2023/10/31 01:13:09;;;;;;;14.40;5.07;;;;;;;11.34;91.15;94796.38;5069725;28;20182;-45
2023/10/31 01:15:36;;;;;;;8.13;4.47;;;;;;;11.30;91.15;94790.72;5069829;28;20194;-44
2023/10/31 01:18:03;;;;;;;9.57;4.47;;;;;;;11.24;91.32;94789.53;5069727;28;20202;-46
2023/10/31 01:20:30;;;;;;;7.80;4.00;;;;;;;11.25;91.39;94791.16;5069980;28;20222;-44
2023/10/31 01:22:57;;;;;;;7.47;4.33;;;;;;;11.20;91.73;94792.53;5069924;28;20182;-45
2023/10/31 01:25:23;;;;;;;7.70;4.60;;;;;;;11.19;91.81;94783.25;5069765;28;20190;-44
2023/10/31 01:27:52;;;;;;;5.80;4.57;;;;;;;11.21;91.74;94783.91;5069751;28;20186;-44
2023/10/31 01:30:18;;;;;;;7.63;4.20;;;;;;;11.19;91.75;94778.91;5069263;28;20187;-45
2023/10/31 01:32:45;;;;;;;8.47;4.37;;;;;;;11.19;91.83;94784.03;5069679;28;20189;-44
2023/10/31 01:35:12;;;;;;;8.17;4.00;;;;;;;11.19;91.67;94776.38;5069463;28;20596;-44
2023/10/31 01:37:39;;;;;;;9.10;4.00;;;;;;;11.18;91.61;94772.19;5069381;28;20554;-44
2023/10/31 01:40:07;;;;;;;5.60;3.93;;;;;;;11.16;91.93;94770.72;5069579;28;20225;-44
2023/10/31 01:42:34;;;;;;;7.20;4.43;;;;;;;11.13;91.69;94761.53;5069547;28;20579;-44
2023/10/31 01:45:02;;;;;;;4.60;4.13;;;;;;;11.17;91.77;94778.25;5069577;28;20190;-45
2023/10/31 01:47:29;;;;;;;6.27;4.00;;;;;;;11.13;91.93;94771.78;5069581;28;20187;-45
2023/10/31 01:49:56;;;;;;;5.13;3.87;;;;;;;11.13;91.99;94774.34;5069034;28;20222;-45
2023/10/31 01:52:23;;;;;;;10.13;4.63;;;;;;;11.11;91.86;94776.25;5069597;28;20194;-45
2023/10/31 01:54:50;;;;;;;13.37;4.20;;;;;;;11.12;91.76;94777.84;5069069;28;20586;-43
2023/10/31 01:57:21;;;;;;;8.50;4.30;;;;;;;10.92;91.60;94741.25;5069690;28;20182;-44
2023/10/31 01:59:48;;;;;;;6.40;4.17;;;;;;;11.15;91.29;94771.66;5069231;28;20240;-44
2023/10/31 02:02:17;;;;;;;5.43;4.30;;;;;;;11.15;91.48;94771.66;5069690;28;20201;-44
2023/10/31 02:04:44;;;;;;;6.47;4.40;;;;;;;11.14;91.62;94765.75;5068835;28;20186;-46
2023/10/31 02:07:11;;;;;;;8.40;4.53;;;;;;;11.17;91.56;94759.53;5069080;28;20199;-44
2023/10/31 02:09:37;;;;;;;5.80;4.30;;;;;;;11.17;91.60;94760.31;5069250;28;20182;-45
2023/10/31 02:12:05;;;;;;;7.93;4.63;;;;;;;11.12;91.62;94759.94;5069191;28;20187;-45
2023/10/31 02:14:31;;;;;;;8.67;4.50;;;;;;;11.10;91.96;94764.41;5068797;28;20681;-45
2023/10/31 02:16:58;;;;;;;8.43;4.27;;;;;;;11.08;91.82;94755.25;5069040;28;20190;-45
2023/10/31 02:19:27;;;;;;;7.53;4.23;;;;;;;11.03;92.06;94753.91;5069370;28;20182;-45
2023/10/31 02:21:55;;;;;;;10.40;4.80;;;;;;;10.97;92.24;94746.78;5069475;28;20559;-45
2023/10/31 02:24:22;;;;;;;6.80;4.30;;;;;;;11.00;92.29;94753.38;5069118;28;20618;-44
2023/10/31 02:26:49;;;;;;;5.67;3.77;;;;;;;10.98;92.25;94752.72;5069051;28;20202;-44
2023/10/31 02:29:16;;;;;;;6.83;4.50;;;;;;;10.96;92.52;94747.72;5069229;28;20194;-44
2023/10/31 02:31:43;;;;;;;9.80;4.77;;;;;;;10.89;92.59;94745.88;5068969;28;20194;-44
2023/10/31 02:34:09;;;;;;;6.17;4.43;;;;;;;10.89;92.80;94748.44;5069299;28;20182;-44
2023/10/31 02:36:36;;;;;;;7.23;4.97;;;;;;;10.88;92.91;94754.47;5069248;28;20190;-44
2023/10/31 02:39:04;;;;;;;8.47;4.70;;;;;;;10.81;93.07;94744.00;5069051;28;20187;-44
2023/10/31 02:41:31;;;;;;;7.63;4.73;;;;;;;10.78;93.55;94741.69;5069066;28;20305;-43
2023/10/31 02:43:58;;;;;;;7.20;4.87;;;;;;;10.74;93.47;94748.84;5071580;28;20212;-45
2023/10/31 02:46:25;;;;;;;11.07;4.93;;;;;;;10.70;93.46;94749.25;5072930;28;20205;-45
2023/10/31 02:48:52;;;;;;;6.97;4.13;;;;;;;10.69;93.89;94743.34;5073272;28;20190;-45
2023/10/31 02:51:18;;;;;;;10.13;4.63;;;;;;;10.54;93.82;94717.38;5072548;28;20230;-45
2023/10/31 02:53:45;;;;;;;11.77;4.77;;;;;;;10.66;93.93;94741.03;5073519;28;20546;-45
2023/10/31 02:56:13;;;;;;;5.60;4.40;;;;;;;10.65;94.18;94749.66;5072793;28;20190;-45
2023/10/31 02:58:40;;;;;;;7.70;4.43;;;;;;;10.64;94.11;94748.06;5076225;28;20198;-44
2023/10/31 03:01:07;;;;;;;13.07;4.97;;;;;;;10.59;94.36;94742.56;5080415;28;20225;-45
2023/10/31 03:03:34;;;;;;;9.43;4.53;;;;;;;10.58;94.41;94740.09;5074621;28;20194;-44
2023/10/31 03:06:01;;;;;;;6.87;4.37;;;;;;;10.53;94.50;94746.47;5074142;28;20190;-44
2023/10/31 03:08:28;;;;;;;5.17;4.00;;;;;;;10.49;94.91;94736.63;5072550;28;20186;-45
2023/10/31 03:10:55;;;;;;;4.37;3.90;;;;;;;10.49;94.71;94746.84;5072520;28;20187;-44
2023/10/31 03:13:23;;;;;;;9.37;4.80;;;;;;;10.28;94.91;94719.69;5072245;28;20190;-43
2023/10/31 03:15:50;;;;;;;8.40;4.90;;;;;;;10.44;95.09;94749.00;5072705;28;20194;-43
2023/10/31 03:18:16;;;;;;;8.57;4.33;;;;;;;10.43;95.31;94747.41;5071910;28;20260;-43
2023/10/31 03:20:45;;;;;;;9.70;4.47;;;;;;;10.40;95.34;94742.56;5072007;28;20226;-44
2023/10/31 03:23:12;;;;;;;9.57;4.10;;;;;;;10.30;95.26;94724.66;5072260;28;20609;-44
2023/10/31 03:25:39;;;;;;;6.90;4.57;;;;;;;10.45;95.37;94732.75;5072105;28;20198;-43
2023/10/31 03:28:17;;;;;;;7.70;4.57;;;;;;;10.41;95.42;94727.09;5071963;28;20190;-45
2023/10/31 03:30:49;;;;;;;5.17;4.30;;;;;;;10.40;95.50;94722.09;5072216;28;20193;-46
2023/10/31 03:33:17;;;;;;;9.70;4.67;;;;;;;10.35;95.56;94707.16;5071734;28;20583;-44
2023/10/31 03:35:44;;;;;;;8.63;4.97;;;;;;;10.41;95.76;94713.50;5071828;28;20229;-44
2023/10/31 03:38:11;;;;;;;7.07;4.90;;;;;;;10.45;95.87;94714.84;5071736;28;20179;-45
2023/10/31 03:40:38;;;;;;;6.93;4.53;;;;;;;10.48;95.94;94723.03;5071569;28;20228;-44
2023/10/31 03:43:05;;;;;;;6.00;4.60;;;;;;;10.34;95.71;94704.75;5071682;28;20194;-47
2023/10/31 03:45:32;;;;;;;6.70;4.10;;;;;;;10.37;95.94;94712.97;5071528;28;20596;-44
2023/10/31 03:48:00;;;;;;;8.23;4.50;;;;;;;10.47;95.80;94723.97;5071857;28;20197;-44
2023/10/31 03:50:27;;;;;;;8.07;5.60;;;;;;;10.47;95.84;94738.53;5070937;28;20355;-45
2023/10/31 03:52:54;;;;;;;13.73;7.13;;;;;;;10.41;95.78;94724.53;5071813;28;20305;-44
2023/10/31 03:55:21;;;;;;;13.23;8.30;;;;;;;10.36;95.77;94739.44;5070104;28;20186;-45
2023/10/31 03:57:48;;;;;;;13.83;8.23;;;;;;;10.28;95.72;94736.78;5071515;28;20187;-44
2023/10/31 04:00:15;;;;;;;18.97;8.10;;;;;;;10.22;96.12;94734.72;5071399;28;20660;-45
2023/10/31 04:02:42;;;;;;;16.13;9.23;;;;;;;10.11;96.11;94715.22;5071667;28;20190;-44
2023/10/31 04:05:11;;;;;;;13.40;8.97;;;;;;;10.16;96.05;94730.16;5071632;28;20198;-46
2023/10/31 04:07:38;;;;;;;10.83;8.03;;;;;;;10.17;96.36;94724.09;5072036;28;20729;-45
2023/10/31 04:10:06;;;;;;;11.80;7.37;;;;;;;10.15;95.90;94737.03;5071147;28;20233;-44
2023/10/31 04:12:34;;;;;;;15.10;7.90;;;;;;;10.13;96.20;94733.78;5071483;28;20186;-43
2023/10/31 04:15:01;;;;;;;8.87;7.53;;;;;;;10.05;96.36;94716.56;5071003;28;20187;-45
2023/10/31 04:17:28;;;;;;;16.37;7.13;;;;;;;10.06;96.40;94709.72;5071336;28;20236;-44
2023/10/31 04:19:54;;;;;;;12.70;7.73;;;;;;;10.05;96.66;94715.75;5071119;28;20186;-45
2023/10/31 04:22:23;;;;;;;12.47;7.83;;;;;;;9.92;96.74;94690.47;5070788;28;20558;-43
2023/10/31 04:24:50;;;;;;;13.23;7.80;;;;;;;9.98;96.70;94705.28;5071312;28;20190;-44
2023/10/31 04:27:16;;;;;;;13.83;8.17;;;;;;;9.98;96.76;94707.03;5070381;28;20191;-44
2023/10/31 04:29:43;;;;;;;11.90;8.07;;;;;;;9.99;96.83;94708.63;5071085;28;20186;-45
2023/10/31 04:32:10;;;;;;;13.60;8.70;;;;;;;9.99;97.01;94706.88;5070795;28;20194;-44
2023/10/31 04:34:37;;;;;;;13.63;7.90;;;;;;;10.02;97.12;94705.81;5071189;28;20182;-45
2023/10/31 04:37:03;;;;;;;18.20;7.67;;;;;;;10.00;97.37;94708.50;5070386;28;20186;-44
2023/10/31 04:39:32;;;;;;;11.03;7.53;;;;;;;9.85;97.31;94686.03;5071016;28;20198;-43
2023/10/31 04:41:59;;;;;;;14.07;7.80;;;;;;;9.93;97.63;94704.88;5070601;28;20226;-44
2023/10/31 04:44:26;;;;;;;10.33;6.73;;;;;;;9.91;97.54;94706.75;5070497;28;20201;-45
2023/10/31 04:46:52;;;;;;;11.27;7.57;;;;;;;9.74;97.69;94684.41;5070182;28;20190;-45
2023/10/31 04:49:20;;;;;;;13.90;7.57;;;;;;;9.92;97.58;94702.44;5070293;28;20298;-44
2023/10/31 04:51:47;;;;;;;14.20;8.73;;;;;;;9.95;97.50;94717.50;5070275;28;20674;-45
2023/10/31 04:54:14;;;;;;;17.97;8.60;;;;;;;9.93;97.67;94725.31;5070429;28;20292;-45
2023/10/31 04:56:42;;;;;;;19.50;7.87;;;;;;;9.95;97.65;94731.06;5070656;28;20269;-44
2023/10/31 04:59:09;;;;;;;20.47;8.27;;;;;;;9.97;97.69;94730.94;5070150;28;20202;-45
2023/10/31 05:01:35;;;;;;;17.87;8.40;;;;;;;9.96;98.10;94727.56;5069664;28;20222;-43
2023/10/31 05:04:02;;;;;;;25.13;8.70;;;;;;;9.92;97.99;94728.78;5069815;28;20187;-44
2023/10/31 05:06:29;;;;;;;16.40;9.10;;;;;;;9.91;97.98;94727.16;5069685;28;20218;-44
2023/10/31 05:08:56;;;;;;;18.17;8.87;;;;;;;9.77;98.18;94709.69;5069961;28;20556;-46
2023/10/31 05:11:22;;;;;;;13.80;7.97;;;;;;;9.90;97.76;94722.22;5069947;28;20201;-44
2023/10/31 05:13:51;;;;;;;10.47;7.80;;;;;;;9.86;97.87;94731.06;5069955;28;20312;-45
2023/10/31 05:16:18;;;;;;;12.90;8.83;;;;;;;9.84;98.14;94726.09;5070027;28;20213;-43
2023/10/31 05:18:45;;;;;;;13.90;9.00;;;;;;;9.87;98.31;94725.03;5069818;28;20668;-47
2023/10/31 05:21:12;;;;;;;14.33;8.40;;;;;;;9.89;98.15;94731.63;5070798;28;20601;-54
2023/10/31 05:23:39;;;;;;;11.77;8.07;;;;;;;9.90;98.28;94730.69;5073350;28;20197;-46
2023/10/31 05:26:06;;;;;;;12.37;8.73;;;;;;;9.90;98.00;94743.44;5074023;28;20190;-44
2023/10/31 05:28:33;;;;;;;16.83;8.20;;;;;;;9.90;98.16;94735.78;5073903;28;20183;-43
2023/10/31 05:31:01;;;;;;;12.07;8.57;;;;;;;9.92;98.23;94741.56;5073627;28;20190;-44
2023/10/31 05:33:28;;;;;;;10.97;7.83;;;;;;;9.95;97.98;94735.38;5074701;28;20195;-45
2023/10/31 05:35:53;;;;;;;14.37;8.93;;;;;;;10.01;97.74;94745.06;5072444;28;20183;-45
2023/10/31 05:38:20;;;;;;;15.37;8.50;;;;;;;9.89;97.89;94720.59;5071470;28;20256;-44
2023/10/31 05:40:48;;;;;;;11.67;7.93;;;;;;;10.07;97.94;94744.53;5070306;28;20220;-45
2023/10/31 05:43:15;;;;;;;15.47;8.97;;;;;;;10.14;97.83;94739.69;5069580;28;20277;-43
2023/10/31 05:45:41;;;;;;;15.07;8.93;;;;;;;10.19;97.44;94733.25;5070041;28;20198;-45
2023/10/31 05:48:10;;;;;;;19.37;9.57;;;;;;;10.29;97.34;94735.84;5070077;28;20195;-45
2023/10/31 05:50:36;;;;;;;14.87;8.87;;;;;;;10.35;97.40;94748.06;5069257;28;20815;-45
2023/10/31 05:53:03;;;;;;;15.70;10.17;;;;;;;10.35;97.22;94752.38;5069692;28;20582;-45
2023/10/31 05:55:30;;;;;;;22.50;10.63;;;;;;;10.40;96.87;94753.59;5069083;28;20266;-44
2023/10/31 05:57:57;;;;;;;13.17;11.07;;;;;;;10.46;96.82;94762.47;5069337;28;20186;-44
2023/10/31 06:00:23;;;;;;;12.77;9.97;;;;;;;10.53;96.61;94766.09;5068951;28;20205;-44
2023/10/31 06:02:50;;;;;;;17.77;10.37;;;;;;;10.58;96.21;94771.63;5069117;28;20221;-44
2023/10/31 06:05:18;;;;;;;20.93;11.67;;;;;;;10.62;96.13;94769.59;5069109;28;20538;-45
2023/10/31 06:07:45;;;;;;;13.43;10.43;;;;;;;10.69;95.34;94770.66;5069476;28;20193;-44
2023/10/31 06:10:12;;;;;;;18.80;10.53;;;;;;;10.81;95.62;94779.81;5069175;28;20201;-45
2023/10/31 06:12:39;;;;;;;20.60;10.57;;;;;;;10.96;95.04;94785.28;5069028;28;20235;-44
2023/10/31 06:15:08;;;;;;;16.47;9.30;;;;;;;11.18;94.42;94785.00;5069243;28;20645;-45
2023/10/31 06:17:34;;;;;;;15.33;9.20;;;;;;;11.40;93.67;94778.72;5069054;28;20194;-45
2023/10/31 06:20:02;;;;;;;16.43;10.13;;;;;;;11.63;92.54;94778.34;5073566;28;20185;-43
2023/10/31 06:22:31;;;;;;;21.67;11.20;;;;;;;11.88;91.68;94771.81;5073129;28;20226;-45
2023/10/31 06:24:58;;;;;;;15.90;9.77;;;;;;;12.08;90.56;94768.16;5073437;28;20192;-45
2023/10/31 06:27:25;;;;;;;17.47;9.10;;;;;;;12.19;90.03;94760.25;5072988;28;20194;-45
2023/10/31 06:29:51;;;;;;;11.20;9.10;;;;;;;12.34;88.75;94746.91;5073023;28;20196;-46
2023/10/31 06:32:18;;;;;;;19.67;9.80;;;;;;;12.73;88.37;94773.06;5072680;28;20661;-45
2023/10/31 06:34:45;;;;;;;19.20;8.83;;;;;;;12.89;87.18;94765.47;5073092;28;20201;-45
2023/10/31 06:37:12;;;;;;;14.90;9.40;;;;;;;13.37;85.90;94776.22;5072927;28;20269;-44
2023/10/31 06:39:40;;;;;;;14.50;9.00;;;;;;;13.73;84.58;94776.88;5073167;28;20201;-44
2023/10/31 06:42:07;;;;;;;17.93;8.27;;;;;;;14.09;83.49;94766.41;5072895;28;20738;-47
2023/10/31 06:44:33;;;;;;;14.10;8.27;;;;;;;14.38;81.21;94763.38;5072758;28;20219;-45
2023/10/31 06:47:00;;;;;;;12.00;8.63;;;;;;;14.19;79.83;94697.59;5073171;28;20194;-45
2023/10/31 06:49:27;;;;;;;14.73;8.93;;;;;;;14.89;78.72;94776.94;5072500;28;20194;-45
2023/10/31 06:51:54;;;;;;;12.20;7.70;;;;;;;15.16;77.67;94768.06;5072837;28;20198;-45
2023/10/31 06:54:21;;;;;;;16.00;8.27;;;;;;;15.47;76.83;94774.13;5072316;28;20190;-45
2023/10/31 06:56:49;;;;;;;14.47;8.27;;;;;;;15.80;74.69;94772.28;5072511;28;20638;-45
2023/10/31 06:59:18;;;;;;;15.30;8.70;;;;;;;15.95;74.36;94774.13;5072240;28;20194;-45
2023/10/31 07:01:46;;;;;;;17.60;7.57;;;;;;;16.18;73.45;94784.50;5072502;28;20230;-45
2023/10/31 07:04:13;;;;;;;10.63;8.07;;;;;;;16.34;72.61;94773.28;5072267;28;20190;-45
2023/10/31 07:06:40;;;;;;;11.57;7.97;;;;;;;16.47;71.14;94776.88;5072435;28;20217;-45
2023/10/31 07:09:07;;;;;;;10.53;7.80;;;;;;;16.50;70.95;94770.59;5072385;28;20665;-44
2023/10/31 07:11:34;;;;;;;17.33;9.00;;;;;;;16.58;70.58;94767.13;5072078;28;20273;-44
2023/10/31 07:14:03;;;;;;;11.63;8.40;;;;;;;16.65;70.67;94768.84;5072312;28;20182;-45
2023/10/31 07:16:30;;;;;;;11.90;8.87;;;;;;;16.78;70.64;94756.19;5072564;28;20263;-46
2023/10/31 07:18:57;;;;;;;13.40;8.23;;;;;;;17.02;69.41;94764.72;5072344;28;20187;-46
2023/10/31 07:21:24;;;;;;;16.20;8.47;;;;;;;17.14;68.85;94757.31;5072373;28;20222;-44
2023/10/31 07:23:50;;;;;;;14.77;8.10;;;;;;;17.21;68.74;94758.25;5072147;28;20186;-45
2023/10/31 07:26:17;;;;;;;14.53;8.13;;;;;;;17.33;68.00;94761.19;5071724;28;20197;-46
2023/10/31 07:28:44;;;;;;;14.17;8.70;;;;;;;17.37;67.77;94759.88;5071573;28;20619;-44
2023/10/31 07:31:12;;;;;;;17.20;8.23;;;;;;;17.36;67.59;94759.06;5071451;28;20739;-45
2023/10/31 07:33:39;;;;;;;15.40;9.07;;;;;;;17.41;67.27;94753.34;5072019;28;20602;-45
2023/10/31 07:36:06;;;;;;;17.33;8.77;;;;;;;17.56;67.21;94751.56;5071585;28;20638;-43
2023/10/31 07:38:35;;;;;;;13.37;8.27;;;;;;;17.86;65.81;94754.97;5071807;28;20201;-45
2023/10/31 07:41:02;;;;;;;12.20;8.77;;;;;;;18.08;65.02;94749.81;5071864;28;20288;-44
2023/10/31 07:43:29;;;;;;;12.10;8.27;;;;;;;18.26;65.05;94752.81;5071461;28;20210;-44
2023/10/31 07:45:55;;;;;;;15.90;8.60;;;;;;;18.41;64.69;94743.22;5071873;28;20190;-45
2023/10/31 07:48:23;;;;;;;17.10;8.33;;;;;;;18.41;64.36;94735.44;5072106;28;20681;-45
2023/10/31 07:50:50;;;;;;;11.67;7.40;;;;;;;18.38;64.44;94735.81;5071301;28;20222;-45
2023/10/31 08:40:22;;;;;;;13.43;7.73;;;;;;;17.66;67.72;94665.94;5055417;28;20323;-45
2023/10/31 09:58:43;;;;;;;8.83;4.23;;;;;;;19.44;60.20;94525.78;5045891;28;20221;-44
2023/10/31 10:01:11;;;;;;;7.13;4.53;;;;;;;19.53;59.74;94522.00;5069242;28;20189;-44
2023/10/31 10:03:38;;;;;;;11.37;5.10;;;;;;;19.63;59.06;94511.25;5068673;28;20696;-44
2023/10/31 10:06:06;;;;;;;11.40;4.47;;;;;;;19.65;58.93;94501.50;5069247;28;20205;-43
2023/10/31 10:08:33;;;;;;;7.23;4.03;;;;;;;19.64;59.08;94500.69;5069200;28;20201;-44
2023/10/31 10:11:00;;;;;;;11.85;4.60;;;;;;;19.70;59.07;94499.91;5068956;28;20194;-44
2023/10/31 10:13:27;;;;;;;13.00;4.20;;;;;;;19.76;59.12;94487.91;5068657;28;20187;-44
2023/10/31 10:15:55;;;;;;;6.10;4.50;;;;;;;19.82;59.28;94491.50;5069056;28;20191;-43
2023/10/31 10:18:28;;;;;;;7.07;4.68;;;;;;;19.51;58.46;94421.00;5068659;28;20189;-44
2023/10/31 10:20:57;;;;;;;10.37;4.60;;;;;;;19.92;58.56;94477.16;5069067;28;20190;-43
2023/10/31 10:23:24;;;;;;;11.97;4.47;;;;;;;19.97;58.51;94481.75;5068556;28;20210;-43
2023/10/31 10:25:51;;;;;;;9.32;4.22;;;;;;;19.99;57.83;94471.94;5069309;28;20190;-43
2023/10/31 10:28:18;;;;;;;14.60;4.88;;;;;;;20.05;57.43;94468.56;5068884;28;20183;-44
2023/10/31 10:30:46;;;;;;;7.50;4.43;;;;;;;20.05;57.64;94455.56;5069163;28;20187;-44
2023/10/31 10:33:14;;;;;;;10.05;4.85;;;;;;;20.16;57.96;94459.34;5069201;28;20198;-44
2023/10/31 10:35:41;;;;;;;12.05;4.35;;;;;;;20.28;57.77;94471.50;5068869;28;20190;-43
2023/10/31 10:38:13;;;;;;;8.43;4.65;;;;;;;20.40;57.00;94463.91;5069222;28;20273;-43
2023/10/31 10:40:42;;;;;;;7.95;5.00;;;;;;;20.52;56.37;94449.31;5069046;28;20555;-44
2023/10/31 10:43:14;;;;;;;11.48;4.13;;;;;;;20.64;55.02;94440.84;5068974;28;20314;-45
2023/10/31 10:45:44;;;;;;;16.67;4.70;;;;;;;20.71;54.69;94437.22;5068646;28;20186;-44
2023/10/31 10:48:16;;;;;;;8.45;4.53;;;;;;;20.14;54.52;94345.31;5069053;28;20319;-44
2023/10/31 10:50:46;;;;;;;7.50;4.57;;;;;;;20.88;54.33;94421.97;5068732;28;20190;-46
2023/10/31 10:53:22;;;;;;;6.68;4.40;;;;;;;21.04;54.26;94415.50;5068771;28;20665;-45
2023/10/31 10:55:53;;;;;;;10.27;4.65;;;;;;;21.19;53.92;94407.38;5069178;28;20183;-46
2023/10/31 10:58:28;;;;;;;8.15;4.57;;;;;;;21.22;53.62;94412.19;5068891;28;20182;-46
2023/10/31 11:00:58;;;;;;;9.23;3.65;;;;;;;21.27;52.47;94415.72;5068998;28;20267;-46
2023/10/31 11:03:28;;;;;;;8.02;4.20;;;;;;;21.29;52.61;94408.53;5069093;28;20222;-46
2023/10/31 11:05:58;;;;;;;7.18;4.40;;;;;;;21.42;52.92;94410.28;5072305;28;20260;-45
2023/10/31 11:08:26;;;;;;;8.63;5.40;;;;;;;21.46;52.39;94406.25;5072500;28;20240;-45
2023/10/31 11:10:55;;;;;;;10.73;5.88;;;;;;;21.54;52.44;94416.41;5072345;28;20723;-44
2023/10/31 11:13:23;;;;;;;6.63;4.78;;;;;;;21.50;51.95;94396.19;5072252;28;20244;-44
2023/10/31 11:15:56;;;;;;;11.07;4.20;;;;;;;21.45;51.89;94390.81;5071971;28;20213;-45
2023/10/31 11:18:24;;;;;;;13.10;4.15;;;;;;;21.22;51.41;94366.16;5072350;28;20190;-45
2023/10/31 11:20:52;;;;;;;8.55;3.88;;;;;;;21.37;51.49;94391.09;5071928;28;20190;-45
2023/10/31 11:23:20;;;;;;;9.40;4.60;;;;;;;21.42;51.00;94383.47;5072047;28;20226;-45
2023/10/31 11:25:53;;;;;;;7.65;4.22;;;;;;;21.30;50.61;94355.50;5072107;28;20205;-45
2023/10/31 11:28:20;;;;;;;9.30;3.60;;;;;;;21.47;50.16;94379.22;5074072;28;20237;-45
2023/10/31 11:30:58;;;;;;;5.13;3.40;;;;;;;21.46;49.78;94376.81;5073137;28;20395;-44
2023/10/31 11:33:25;;;;;;;13.57;4.50;;;;;;;21.33;49.15;94333.50;5071893;28;20189;-45
2023/10/31 11:36:01;;;;;;;5.55;3.22;;;;;;;21.57;47.88;94360.50;5071393;28;20304;-44
2023/10/31 11:38:36;;;;;;;9.20;3.50;;;;;;;21.58;47.78;94356.09;5071967;28;20311;-44
2023/10/31 11:41:04;;;;;;;5.35;3.10;;;;;;;21.40;48.15;94326.41;5072258;28;20653;-45
2023/10/31 11:43:52;;;;;;;7.20;3.50;;;;;;;21.63;47.66;94340.63;5071995;28;20279;-44
2023/10/31 11:46:20;;;;;;;7.78;3.10;;;;;;;21.40;47.45;94304.81;5071614;28;20190;-46
2023/10/31 11:48:48;;;;;;;4.15;2.75;;;;;;;21.74;47.12;94347.75;5071682;28;20224;-44
2023/10/31 11:51:16;;;;;;;4.57;2.90;;;;;;;21.72;46.63;94339.38;5071503;28;20301;-45
2023/10/31 11:53:44;;;;;;;9.00;2.97;;;;;;;21.57;46.95;94321.47;5071579;28;20194;-45
2023/10/31 11:56:12;;;;;;;3.80;2.80;;;;;;;21.73;45.01;94343.56;5071510;28;20581;-45
2023/10/31 11:58:39;;;;;;;3.90;2.92;;;;;;;21.71;44.21;94335.16;5071203;28;20190;-44
2023/10/31 12:01:08;;;;;;;4.43;2.83;;;;;;;21.64;44.24;94313.63;5071440;28;20198;-44
2023/10/31 12:03:38;;;;;;;6.38;2.88;;;;;;;21.77;44.50;94329.09;5071318;28;20882;-44
2023/10/31 12:06:06;;;;;;;5.03;2.80;;;;;;;21.82;44.38;94321.44;5071034;28;20194;-44
2023/10/31 12:08:36;;;;;;;8.75;2.42;;;;;;;21.78;43.56;94320.28;5070822;28;20195;-43
2023/10/31 12:11:10;;;;;;;5.13;3.20;;;;;;;21.77;43.46;94319.47;5071247;28;20189;-44
2023/10/31 12:13:38;;;;;;;7.22;3.17;;;;;;;21.77;44.00;94295.25;5071261;28;20534;-44
2023/10/31 12:16:06;;;;;;;7.05;3.05;;;;;;;21.76;44.37;94288.44;5070180;28;20191;-45
2023/10/31 12:18:35;;;;;;;8.98;3.33;;;;;;;21.96;44.61;94309.84;5071337;28;20187;-44
2023/10/31 12:21:01;;;;;;;3.80;2.80;;;;;;;22.04;44.61;94306.97;5070656;28;20714;-50
2023/10/31 12:23:28;;;;;;;11.60;4.60;;;;;;;21.97;44.66;94284.63;5070876;28;20287;-46
2023/10/31 12:25:57;;;;;;;11.45;4.07;;;;;;;22.24;45.23;94305.97;5070749;28;20687;-44
2023/10/31 12:28:26;;;;;;;5.32;2.85;;;;;;;22.26;45.36;94280.50;5070676;28;20194;-44
2023/10/31 12:30:54;;;;;;;6.72;2.80;;;;;;;22.45;45.52;94291.66;5070498;28;20665;-43
2023/10/31 12:33:24;;;;;;;7.50;2.90;;;;;;;22.47;45.47;94295.66;5070615;28;20308;-44
2023/10/31 12:35:53;;;;;;;9.45;3.40;;;;;;;22.51;45.50;94282.97;5070413;28;20212;-43
2023/10/31 12:38:20;;;;;;;6.55;2.50;;;;;;;22.57;45.53;94281.28;5070603;28;20661;-43
2023/10/31 12:40:49;;;;;;;7.38;2.90;;;;;;;22.64;44.87;94280.19;5070800;28;21022;-43
2023/10/31 12:43:18;;;;;;;6.72;3.08;;;;;;;22.61;45.49;94266.78;5070723;28;20625;-45
2023/10/31 12:45:45;;;;;;;6.15;3.20;;;;;;;22.46;46.15;94256.78;5070562;28;20296;-44
2023/10/31 12:48:12;;;;;;;8.70;3.72;;;;;;;22.37;46.95;94256.31;5070688;28;20206;-44
2023/10/31 12:50:40;;;;;;;9.55;3.08;;;;;;;22.25;46.77;94253.66;5070212;28;20194;-44
2023/10/31 12:53:07;;;;;;;6.80;3.42;;;;;;;22.20;47.07;94260.53;5070691;28;20205;-44
2023/10/31 12:55:40;;;;;;;6.85;3.40;;;;;;;22.14;47.40;94269.22;5070295;28;20199;-44
2023/10/31 12:58:09;;;;;;;6.15;3.53;;;;;;;22.09;47.56;94267.25;5070263;28;20190;-44
2023/10/31 13:00:38;;;;;;;7.10;3.15;;;;;;;22.05;47.72;94260.88;5069662;28;20230;-44
2023/10/31 13:03:07;;;;;;;4.18;3.50;;;;;;;21.99;47.82;94262.56;5070278;28;20331;-44
2023/10/31 13:05:35;;;;;;;6.82;3.13;;;;;;;21.97;48.26;94259.38;5069747;28;20194;-44
2023/10/31 13:08:05;;;;;;;4.20;3.03;;;;;;;21.93;48.48;94263.41;5069854;28;20715;-43
2023/10/31 13:10:33;;;;;;;8.38;3.63;;;;;;;21.87;48.13;94259.09;5069942;28;20205;-44
2023/10/31 13:13:00;;;;;;;5.07;3.38;;;;;;;21.90;48.21;94265.69;5069648;28;20191;-44
2023/10/31 13:15:27;;;;;;;10.43;3.72;;;;;;;21.87;48.46;94258.31;5070316;28;20178;-43
2023/10/31 13:17:55;;;;;;;7.38;3.63;;;;;;;21.78;49.06;94242.97;5069920;28;20182;-43
2023/10/31 13:20:22;;;;;;;8.13;3.75;;;;;;;21.80;49.15;94237.53;5069760;28;20202;-44
2023/10/31 13:22:49;;;;;;;5.38;3.30;;;;;;;21.81;49.21;94233.94;5069825;28;20213;-45
2023/10/31 13:25:17;;;;;;;12.70;3.63;;;;;;;21.78;49.32;94244.78;5069749;28;20264;-45
2023/10/31 13:27:50;;;;;;;14.32;3.80;;;;;;;21.81;49.10;94241.75;5069065;28;20186;-45
2023/10/31 13:30:18;;;;;;;8.85;3.40;;;;;;;21.86;49.01;94228.09;5069879;28;20190;-46
2023/10/31 13:32:46;;;;;;;10.43;3.85;;;;;;;21.96;49.34;94239.56;5069110;28;20201;-45
2023/10/31 13:35:14;;;;;;;5.18;4.35;;;;;;;22.01;48.89;94237.09;5069540;28;20183;-44